Time;durP1;ratioP1;P1;durP2;ratioP2;P2;SDS_P1;SDS_P2;PMS_P1;PMS_P2;Temp;Humidity;BMP_temperature;BMP_pressure;BME280_temperature;BME280_humidity;BME280_pressure;Samples;Min_cycle;Max_cycle;Signal;HPM_P1;HPM_P2
2022/11/24 00:00:01;;;;;;;;;;;;;;;12.59;74.54;99795.59;1049695;28;633;-63
2022/11/24 00:00:51;;;;;;;;;;;;;;;12.61;75.28;99800.81;1053921;28;961;-63
2022/11/24 00:01:42;;;;;;;;;;;;;;;12.60;75.13;99797.28;1053352;28;1502;-63
2022/11/24 00:02:32;;;;;;;;;;;;;;;12.58;75.15;99799.25;1052519;28;1111;-63
2022/11/24 00:03:23;;;;;;;;;;;;;;;12.61;75.35;99803.47;1053195;28;1520;-63
2022/11/24 00:04:13;;;;;;;;;;;;;;;12.63;75.13;99799.69;1052526;28;980;-63
2022/11/24 00:05:04;;;;;;;;;;;;;;;12.64;75.40;99798.69;1053569;28;693;-63
2022/11/24 00:05:54;;;;;;;;;;;;;;;12.65;74.62;99800.41;1053772;28;1178;-63
2022/11/24 00:06:45;;;;;;;;;;;;;;;12.67;75.26;99798.44;1053353;28;693;-64
2022/11/24 00:07:35;;;;;;;;;;;;;;;12.66;74.95;99796.75;1053367;28;1138;-64
2022/11/24 00:08:25;;;;;;;;;;;;;;;12.67;75.02;99797.59;1053827;28;698;-63
2022/11/24 00:09:16;;;;;;;;;;;;;;;12.66;75.01;99801.25;1057592;28;1162;-61
2022/11/24 00:10:06;;;;;;;;;;;;;;;12.66;74.98;99804.75;1057667;28;744;-62
2022/11/24 00:10:57;;;;;;;;;;;;;;;12.67;74.96;99808.28;1061915;27;1248;-62
2022/11/24 00:11:47;;;;;;;;;;;;;;;12.64;74.71;99809.41;1055745;28;757;-62
2022/11/24 00:12:38;;;;;;;;;;;;;;;12.66;75.00;99811.94;1051923;28;1910;-62
2022/11/24 00:13:28;;;;;;;;;;;;;;;12.67;74.68;99830.50;1052392;28;960;-63
2022/11/24 00:14:19;;;;;;;;;;;;;;;12.65;75.48;99837.81;1053675;28;791;-63
2022/11/24 00:15:09;;;;;;;;;;;;;;;12.67;75.59;99843.88;1052303;28;670;-63
2022/11/24 00:15:59;;;;;;;;;;;;;;;12.63;74.71;99845.13;1052900;28;714;-63
2022/11/24 00:16:50;;;;;;;;;;;;;;;12.63;74.47;99850.47;1054568;28;1052;-63
2022/11/24 00:17:40;;;;;;;;;;;;;;;12.65;75.42;99859.19;1056185;28;661;-63
2022/11/24 00:18:31;;;;;;;;;;;;;;;12.61;74.44;99851.59;1053346;28;664;-63
2022/11/24 00:19:21;;;;;;;;;;;;;;;12.55;74.28;99852.97;1051906;28;763;-63
2022/11/24 00:20:12;;;;;;;;;;;;;;;12.59;75.76;99854.38;1051622;28;626;-63
2022/11/24 00:21:02;;;;;;;;;;;;;;;12.54;74.88;99843.25;1052363;28;987;-63
2022/11/24 00:21:53;;;;;;;;;;;;;;;12.54;75.57;99839.78;1051537;28;685;-64
2022/11/24 00:22:43;;;;;;;;;;;;;;;12.51;75.20;99836.38;1052854;28;725;-63
2022/11/24 00:23:33;;;;;;;;;;;;;;;12.57;75.01;99834.97;1052792;28;590;-63
2022/11/24 00:24:24;;;;;;;;;;;;;;;12.57;75.31;99834.13;1053317;28;994;-63
2022/11/24 00:25:14;;;;;;;;;;;;;;;12.58;75.03;99839.34;1056104;28;630;-63
2022/11/24 00:26:05;;;;;;;;;;;;;;;12.60;75.59;99841.88;1054750;28;870;-63
2022/11/24 00:26:55;;;;;;;;;;;;;;;12.61;74.93;99841.75;1056486;28;700;-63
2022/11/24 00:27:46;;;;;;;;;;;;;;;12.65;75.35;99840.50;1052025;28;642;-63
2022/11/24 00:28:36;;;;;;;;;;;;;;;12.66;74.69;99850.19;1058334;27;1213;-63
2022/11/24 00:29:26;;;;;;;;;;;;;;;12.68;75.65;99855.41;1059209;27;1278;-63
2022/11/24 00:30:17;;;;;;;;;;;;;;;12.67;74.68;99841.19;1053056;28;613;-63
2022/11/24 00:31:07;;;;;;;;;;;;;;;12.69;75.68;99849.09;1052074;28;778;-63
2022/11/24 00:31:58;;;;;;;;;;;;;;;12.67;75.14;99841.19;1052287;28;1075;-63
2022/11/24 00:32:48;;;;;;;;;;;;;;;12.62;74.32;99846.09;1054207;28;1893;-63
2022/11/24 00:33:39;;;;;;;;;;;;;;;12.65;74.92;99842.31;1055531;28;1477;-63
2022/11/24 00:34:29;;;;;;;;;;;;;;;12.67;75.28;99837.69;1052673;28;606;-63
2022/11/24 00:35:20;;;;;;;;;;;;;;;12.67;75.45;99835.84;1052687;28;796;-63
2022/11/24 00:36:10;;;;;;;;;;;;;;;12.65;75.29;99837.81;1052929;28;641;-63
2022/11/24 00:37:01;;;;;;;;;;;;;;;12.68;74.70;99839.38;1058393;27;1150;-63
2022/11/24 00:37:52;;;;;;;;;;;;;;;12.67;75.71;99835.84;1056802;28;658;-63
2022/11/24 00:38:43;;;;;;;;;;;;;;;12.65;75.17;99843.16;1053921;28;698;-63
2022/11/24 00:39:33;;;;;;;;;;;;;;;12.65;75.58;99842.31;1052861;28;728;-63
2022/11/24 00:40:24;;;;;;;;;;;;;;;12.64;75.06;99848.66;1053111;28;948;-64
2022/11/24 00:41:14;;;;;;;;;;;;;;;12.63;75.29;99845.13;1055901;28;716;-63
2022/11/24 00:42:05;;;;;;;;;;;;;;;12.64;74.84;99851.31;1051845;28;685;-63
2022/11/24 00:42:55;;;;;;;;;;;;;;;12.63;75.30;99850.47;1052499;28;645;-63
2022/11/24 00:43:45;;;;;;;;;;;;;;;12.66;75.49;99847.53;1056414;28;1182;-63
2022/11/24 00:44:36;;;;;;;;;;;;;;;12.66;75.20;99852.03;1056346;28;599;-63
2022/11/24 00:45:26;;;;;;;;;;;;;;;12.65;74.70;99848.50;1055415;28;1004;-63
2022/11/24 00:46:17;;;;;;;;;;;;;;;12.67;75.57;99849.22;1055676;28;721;-63
2022/11/24 00:47:07;;;;;;;;;;;;;;;12.68;75.74;99848.25;1057498;28;668;-63
2022/11/24 00:47:58;;;;;;;;;;;;;;;12.70;75.03;99850.78;1056806;28;638;-61
2022/11/24 00:48:48;;;;;;;;;;;;;;;12.66;74.66;99855.53;1052756;28;638;-63
2022/11/24 00:49:39;;;;;;;;;;;;;;;12.66;75.17;99852.88;1054556;28;1214;-63
2022/11/24 00:50:29;;;;;;;;;;;;;;;12.63;75.54;99849.63;1053341;28;669;-63
2022/11/24 00:51:20;;;;;;;;;;;;;;;12.64;75.05;99862.00;1053857;28;771;-63
2022/11/24 00:52:10;;;;;;;;;;;;;;;12.65;74.88;99858.34;1052163;28;721;-63
2022/11/24 00:53:00;;;;;;;;;;;;;;;12.62;74.20;99858.63;1052875;28;653;-63
2022/11/24 00:53:52;;;;;;;;;;;;;;;12.60;74.51;99864.09;1055621;28;1099;-63
2022/11/24 00:54:42;;;;;;;;;;;;;;;12.60;75.33;99858.75;1056809;28;713;-63
2022/11/24 00:55:32;;;;;;;;;;;;;;;12.60;74.83;99864.09;1056292;28;1205;-64
2022/11/24 00:56:23;;;;;;;;;;;;;;;12.64;75.24;99865.53;1055532;28;952;-63
2022/11/24 00:57:13;;;;;;;;;;;;;;;12.62;75.43;99855.94;1057621;28;621;-63
2022/11/24 00:58:04;;;;;;;;;;;;;;;12.63;75.43;99860.31;1058048;27;1041;-64
2022/11/24 00:58:54;;;;;;;;;;;;;;;12.63;74.25;99860.31;1056318;28;661;-64
2022/11/24 00:59:45;;;;;;;;;;;;;;;12.60;74.61;99865.94;1053688;28;692;-64
2022/11/24 01:00:35;;;;;;;;;;;;;;;12.60;74.89;99865.94;1053308;28;693;-64
2022/11/24 01:01:26;;;;;;;;;;;;;;;12.64;75.13;99870.88;1056259;28;730;-64
2022/11/24 01:02:16;;;;;;;;;;;;;;;12.55;74.02;99862.81;1056079;28;1143;-64
2022/11/24 01:03:07;;;;;;;;;;;;;;;12.55;75.10;99863.66;1054844;28;1078;-64
2022/11/24 01:03:57;;;;;;;;;;;;;;;12.54;74.89;99867.31;1055754;28;630;-63
2022/11/24 01:04:47;;;;;;;;;;;;;;;12.57;75.23;99869.72;1056448;28;1114;-64
2022/11/24 01:05:38;;;;;;;;;;;;;;;12.55;74.81;99869.00;1055716;28;585;-63
2022/11/24 01:06:28;;;;;;;;;;;;;;;12.50;74.63;99865.91;1050382;28;1128;-64
2022/11/24 01:07:19;;;;;;;;;;;;;;;12.56;75.26;99868.03;1052401;28;700;-64
2022/11/24 01:08:09;;;;;;;;;;;;;;;12.59;75.76;99862.41;1055101;28;1071;-63
2022/11/24 01:09:00;;;;;;;;;;;;;;;12.63;75.06;99869.19;1055602;28;622;-63
2022/11/24 01:09:50;;;;;;;;;;;;;;;12.65;75.13;99872.56;1055717;28;1070;-64
2022/11/24 01:10:41;;;;;;;;;;;;;;;12.64;75.05;99876.22;1055424;28;694;-63
2022/11/24 01:12:00;;;;;;;;;;;;;;;12.55;74.24;99879.69;1057251;28;1130;-64
2022/11/24 01:12:44;;;;;;;;;;;;;;;12.55;75.75;99884.19;1056278;28;1980;-64
2022/11/24 01:13:35;;;;;;;;;;;;;;;12.57;75.09;99885.75;1051884;28;637;-64
2022/11/24 01:14:25;;;;;;;;;;;;;;;12.58;75.08;99876.75;1052134;28;670;-63
2022/11/24 01:15:16;;;;;;;;;;;;;;;12.57;75.07;99877.72;1056995;28;1336;-64
2022/11/24 01:16:07;;;;;;;;;;;;;;;12.57;75.19;99876.88;1057708;28;671;-64
2022/11/24 01:16:57;;;;;;;;;;;;;;;12.58;75.64;99875.91;1056719;28;1154;-64
2022/11/24 01:17:48;;;;;;;;;;;;;;;12.54;75.27;99867.31;1053212;28;624;-64
2022/11/24 01:18:38;;;;;;;;;;;;;;;12.58;75.14;99866.06;1052652;28;623;-64
2022/11/24 01:19:29;;;;;;;;;;;;;;;12.58;74.83;99863.38;1053825;28;644;-64
2022/11/24 01:20:19;;;;;;;;;;;;;;;12.63;75.41;99876.34;1052965;28;682;-63
2022/11/24 01:21:09;;;;;;;;;;;;;;;12.58;75.43;99874.06;1056360;28;633;-64
2022/11/24 01:22:00;;;;;;;;;;;;;;;12.55;75.00;99863.66;1053538;28;677;-63
2022/11/24 01:22:50;;;;;;;;;;;;;;;12.58;75.45;99866.06;1056185;28;1162;-64
2022/11/24 01:23:41;;;;;;;;;;;;;;;12.61;75.67;99872.97;1055419;28;702;-63
2022/11/24 01:24:31;;;;;;;;;;;;;;;12.59;74.73;99869.56;1055971;28;1165;-63
2022/11/24 01:25:22;;;;;;;;;;;;;;;12.58;74.88;99873.22;1057211;28;717;-64
2022/11/24 01:26:12;;;;;;;;;;;;;;;12.53;74.86;99876.34;1056214;28;645;-64
2022/11/24 01:27:02;;;;;;;;;;;;;;;12.55;74.80;99873.50;1055900;28;696;-64
2022/11/24 01:27:53;;;;;;;;;;;;;;;12.48;75.13;99868.72;1052538;28;565;-63
2022/11/24 01:28:43;;;;;;;;;;;;;;;12.52;75.48;99880.00;1057321;28;940;-63
2022/11/24 01:29:34;;;;;;;;;;;;;;;12.50;75.37;99869.44;1054748;28;1437;-63
2022/11/24 01:30:24;;;;;;;;;;;;;;;12.55;74.81;99863.66;1053189;28;648;-62
2022/11/24 01:31:15;;;;;;;;;;;;;;;12.56;74.73;99873.38;1051906;28;1485;-63
2022/11/24 01:32:06;;;;;;;;;;;;;;;12.54;74.64;99867.31;1051323;28;645;-63
2022/11/24 01:32:56;;;;;;;;;;;;;;;12.56;75.71;99875.19;1053129;28;829;-63
2022/11/24 01:33:46;;;;;;;;;;;;;;;12.57;74.51;99875.06;1051570;28;1381;-63
2022/11/24 01:34:37;;;;;;;;;;;;;;;12.48;74.17;99871.38;1056694;28;554;-63
2022/11/24 01:35:27;;;;;;;;;;;;;;;12.52;75.13;99874.63;1052065;28;654;-63
2022/11/24 01:36:18;;;;;;;;;;;;;;;12.55;74.67;99876.16;1053469;28;722;-63
2022/11/24 01:37:08;;;;;;;;;;;;;;;12.54;74.83;99883.34;1049614;28;672;-64
2022/11/24 01:37:59;;;;;;;;;;;;;;;12.57;75.23;99880.41;1050320;28;675;-63
2022/11/24 01:38:49;;;;;;;;;;;;;;;12.60;75.27;99879.28;1053732;28;660;-63
2022/11/24 01:39:40;;;;;;;;;;;;;;;12.63;75.25;99887.03;1053137;28;710;-63
2022/11/24 01:40:30;;;;;;;;;;;;;;;12.62;74.38;99886.19;1052407;28;693;-63
2022/11/24 01:41:21;;;;;;;;;;;;;;;12.62;74.79;99891.53;1055834;28;804;-63
2022/11/24 01:42:11;;;;;;;;;;;;;;;12.61;74.69;99881.84;1051809;28;1213;-63
2022/11/24 01:43:01;;;;;;;;;;;;;;;12.64;74.40;99892.25;1054266;28;706;-63
2022/11/24 01:43:52;;;;;;;;;;;;;;;12.68;74.55;99890.16;1049332;28;700;-63
2022/11/24 01:44:42;;;;;;;;;;;;;;;12.64;73.71;99897.59;1055951;28;991;-63
2022/11/24 01:45:33;;;;;;;;;;;;;;;12.59;74.38;99886.47;1055467;28;606;-63
2022/11/24 01:46:24;;;;;;;;;;;;;;;12.57;74.09;99888.41;1053535;28;1011;-63
2022/11/24 01:47:14;;;;;;;;;;;;;;;12.57;74.32;99890.25;1057392;28;635;-63
2022/11/24 01:48:05;;;;;;;;;;;;;;;12.57;75.02;99890.25;1055503;28;1130;-63
2022/11/24 01:48:55;;;;;;;;;;;;;;;12.44;74.25;99885.16;1055668;28;643;-63
2022/11/24 01:49:46;;;;;;;;;;;;;;;12.37;74.22;99892.00;1054777;28;1177;-63
2022/11/24 01:50:36;;;;;;;;;;;;;;;12.40;75.61;99902.41;1055640;28;622;-63
2022/11/24 01:51:27;;;;;;;;;;;;;;;12.42;75.09;99887.09;1053064;28;774;-63
2022/11/24 01:52:17;;;;;;;;;;;;;;;12.45;75.26;99894.84;1051883;28;630;-63
2022/11/24 01:53:08;;;;;;;;;;;;;;;12.49;74.71;99891.78;1052666;28;685;-63
2022/11/24 01:53:58;;;;;;;;;;;;;;;12.46;73.65;99889.38;1053115;28;742;-63
2022/11/24 01:54:48;;;;;;;;;;;;;;;12.44;75.46;99888.66;1054213;28;716;-63
2022/11/24 01:55:39;;;;;;;;;;;;;;;12.38;74.50;99894.53;1053575;28;881;-63
2022/11/24 01:56:30;;;;;;;;;;;;;;;12.39;74.61;99888.22;1056617;28;570;-63
2022/11/24 01:57:20;;;;;;;;;;;;;;;12.45;75.24;99887.69;1055581;28;964;-63
2022/11/24 01:58:11;;;;;;;;;;;;;;;12.51;74.66;99894.31;1052522;28;697;-63
2022/11/24 01:59:01;;;;;;;;;;;;;;;12.54;75.29;99894.03;1055492;28;1139;-63
2022/11/24 01:59:52;;;;;;;;;;;;;;;12.57;74.48;99891.09;1057898;28;636;-63
2022/11/24 02:00:42;;;;;;;;;;;;;;;12.48;74.15;99891.91;1057505;28;1180;-63
2022/11/24 02:01:33;;;;;;;;;;;;;;;12.51;75.12;99895.19;1055912;28;635;-63
2022/11/24 02:02:23;;;;;;;;;;;;;;;12.50;74.46;99887.28;1055804;28;978;-63
2022/11/24 02:03:14;;;;;;;;;;;;;;;12.50;75.51;99890.81;1055885;28;661;-63
2022/11/24 02:04:04;;;;;;;;;;;;;;;12.46;75.27;99891.22;1054627;28;1098;-63
2022/11/24 02:04:54;;;;;;;;;;;;;;;12.44;74.23;99895.84;1055729;28;681;-63
2022/11/24 02:05:45;;;;;;;;;;;;;;;12.41;74.70;99893.44;1052985;28;617;-63
2022/11/24 02:06:35;;;;;;;;;;;;;;;12.45;75.55;99892.19;1052416;28;653;-63
2022/11/24 02:07:26;;;;;;;;;;;;;;;12.47;75.76;99898.25;1053240;28;1331;-63
2022/11/24 02:08:16;;;;;;;;;;;;;;;12.47;74.59;99903.59;1056007;28;1158;-63
2022/11/24 02:09:07;;;;;;;;;;;;;;;12.27;74.34;99904.47;1052932;28;637;-63
2022/11/24 02:09:57;;;;;;;;;;;;;;;12.30;75.01;99912.22;1054867;28;1163;-63
2022/11/24 02:10:47;;;;;;;;;;;;;;;12.36;74.97;99911.72;1055474;28;1400;-63
2022/11/24 02:11:38;;;;;;;;;;;;;;;12.42;75.87;99908.47;1051724;28;670;-63
2022/11/24 02:12:28;;;;;;;;;;;;;;;12.47;75.52;99909.78;1051956;28;1910;-63
2022/11/24 02:13:19;;;;;;;;;;;;;;;12.48;75.40;99906.13;1051084;28;1110;-63
2022/11/24 02:14:09;;;;;;;;;;;;;;;12.39;73.73;99911.41;1052908;28;681;-63
2022/11/24 02:15:00;;;;;;;;;;;;;;;12.39;74.80;99916.75;1053134;28;1023;-63
2022/11/24 02:15:50;;;;;;;;;;;;;;;12.45;75.68;99910.88;1053126;28;717;-63
2022/11/24 02:16:41;;;;;;;;;;;;;;;12.45;75.77;99916.22;1053052;28;653;-63
2022/11/24 02:17:31;;;;;;;;;;;;;;;12.41;75.12;99915.66;1053592;28;698;-63
2022/11/24 02:18:22;;;;;;;;;;;;;;;12.39;74.69;99922.09;1048818;28;916;-63
2022/11/24 02:19:12;;;;;;;;;;;;;;;12.41;74.77;99917.47;1050928;28;1135;-63
2022/11/24 02:20:03;;;;;;;;;;;;;;;12.40;75.29;99911.28;1050454;28;566;-63
2022/11/24 02:20:53;;;;;;;;;;;;;;;12.40;74.42;99924.63;1049322;28;621;-63
2022/11/24 02:21:44;;;;;;;;;;;;;;;12.41;75.51;99922.81;1052545;28;1110;-63
2022/11/24 02:22:34;;;;;;;;;;;;;;;12.37;74.44;99924.06;1053645;28;677;-63
2022/11/24 02:23:24;;;;;;;;;;;;;;;12.36;75.70;99927.75;1044937;28;633;-63
2022/11/24 02:24:15;;;;;;;;;;;;;;;12.41;75.57;99934.34;1045553;28;621;-63
2022/11/24 02:25:05;;;;;;;;;;;;;;;12.34;75.02;99935.03;1052848;28;689;-63
2022/11/24 02:25:56;;;;;;;;;;;;;;;12.38;75.48;99931.09;1054125;28;688;-63
2022/11/24 02:26:46;;;;;;;;;;;;;;;12.29;73.96;99937.25;1053532;28;851;-63
2022/11/24 02:27:37;;;;;;;;;;;;;;;12.27;74.90;99928.53;1053439;28;692;-64
2022/11/24 02:28:27;;;;;;;;;;;;;;;12.31;75.62;99943.31;1056039;28;736;-64
2022/11/24 02:29:19;;;;;;;;;;;;;;;12.27;75.33;99937.38;1055952;28;1602;-64
2022/11/24 02:30:09;;;;;;;;;;;;;;;12.35;75.58;99934.91;1055244;28;721;-64
2022/11/24 02:31:00;;;;;;;;;;;;;;;12.27;75.08;99948.06;1057864;28;1437;-63
2022/11/24 02:31:50;;;;;;;;;;;;;;;12.32;75.83;99935.16;1055958;28;642;-63
2022/11/24 02:32:41;;;;;;;;;;;;;;;12.32;74.57;99945.00;1054878;28;1988;-63
2022/11/24 02:33:31;;;;;;;;;;;;;;;12.24;75.09;99936.78;1060489;28;724;-63
2022/11/24 02:34:22;;;;;;;;;;;;;;;12.30;74.90;99933.59;1057096;28;1219;-63
2022/11/24 02:35:12;;;;;;;;;;;;;;;12.34;75.70;99941.22;1056057;28;670;-63
2022/11/24 02:36:03;;;;;;;;;;;;;;;12.34;75.08;99940.38;1056099;28;696;-63
2022/11/24 02:36:53;;;;;;;;;;;;;;;12.39;75.50;99933.63;1055710;28;1063;-63
2022/11/24 02:37:43;;;;;;;;;;;;;;;12.35;75.63;99940.25;1057170;28;725;-63
2022/11/24 02:38:34;;;;;;;;;;;;;;;12.41;75.12;99938.84;1051714;28;681;-63
2022/11/24 02:39:24;;;;;;;;;;;;;;;12.38;74.29;99936.44;1053039;28;684;-63
2022/11/24 02:40:15;;;;;;;;;;;;;;;12.37;75.31;99934.75;1054222;28;1223;-63
2022/11/24 02:41:06;;;;;;;;;;;;;;;12.39;74.20;99938.97;1052994;28;637;-63
2022/11/24 02:41:56;;;;;;;;;;;;;;;12.34;74.28;99940.38;1052838;28;1201;-63
2022/11/24 02:42:46;;;;;;;;;;;;;;;12.29;75.45;99945.25;1053036;28;634;-63
2022/11/24 02:43:37;;;;;;;;;;;;;;;12.28;75.21;99940.91;1057011;28;1082;-63
2022/11/24 02:44:27;;;;;;;;;;;;;;;12.34;75.26;99941.22;1051873;28;681;-63
2022/11/24 02:45:18;;;;;;;;;;;;;;;12.35;75.27;99936.72;1052147;28;716;-63
2022/11/24 02:46:09;;;;;;;;;;;;;;;12.36;75.88;99939.25;1052339;28;674;-63
2022/11/24 02:47:00;;;;;;;;;;;;;;;12.34;74.31;99941.22;1052701;28;741;-63
2022/11/24 02:47:50;;;;;;;;;;;;;;;12.18;74.19;99940.00;1055821;28;1139;-63
2022/11/24 02:48:40;;;;;;;;;;;;;;;12.27;75.27;99939.22;1056370;28;1346;-63
2022/11/24 02:49:31;;;;;;;;;;;;;;;12.30;75.24;99949.63;1055714;28;1162;-63
2022/11/24 02:50:21;;;;;;;;;;;;;;;12.31;75.33;99948.66;1055510;28;740;-61
2022/11/24 02:51:12;;;;;;;;;;;;;;;12.32;74.73;99947.69;1055586;28;1178;-63
2022/11/24 02:52:02;;;;;;;;;;;;;;;12.36;74.78;99946.44;1057071;28;910;-63
2022/11/24 02:52:53;;;;;;;;;;;;;;;12.25;73.80;99946.50;1055875;28;1883;-63
2022/11/24 02:53:43;;;;;;;;;;;;;;;12.24;75.30;99950.16;1055284;28;710;-63
2022/11/24 02:54:34;;;;;;;;;;;;;;;12.27;74.83;99948.06;1056003;28;1131;-63
2022/11/24 02:55:24;;;;;;;;;;;;;;;12.28;75.17;99949.75;1057012;28;879;-63
2022/11/24 02:56:14;;;;;;;;;;;;;;;12.30;74.62;99953.16;1053064;28;641;-63
2022/11/24 02:57:05;;;;;;;;;;;;;;;12.34;75.33;99956.41;1053488;28;650;-63
2022/11/24 02:57:55;;;;;;;;;;;;;;;12.32;74.92;99947.69;1058300;28;1107;-63
2022/11/24 02:58:46;;;;;;;;;;;;;;;12.26;74.63;99953.53;1053048;28;1047;-63
2022/11/24 02:59:36;;;;;;;;;;;;;;;12.15;74.29;99955.31;1055320;28;630;-63
2022/11/24 03:00:27;;;;;;;;;;;;;;;12.22;75.98;99952.09;1051697;28;1064;-63
2022/11/24 03:01:17;;;;;;;;;;;;;;;12.20;74.72;99954.06;1051441;28;601;-63
2022/11/24 03:02:09;;;;;;;;;;;;;;;12.24;75.31;99950.16;1056791;28;1087;-63
2022/11/24 03:02:59;;;;;;;;;;;;;;;12.18;75.12;99949.69;1056418;28;752;-63
2022/11/24 03:03:50;;;;;;;;;;;;;;;12.22;74.72;99949.44;1056181;28;649;-63
2022/11/24 03:04:40;;;;;;;;;;;;;;;12.28;75.80;99956.94;1056899;28;956;-63
2022/11/24 03:05:31;;;;;;;;;;;;;;;12.29;75.32;99953.28;1055641;28;684;-64
2022/11/24 03:06:21;;;;;;;;;;;;;;;12.27;75.43;99957.91;1057116;28;761;-63
2022/11/24 03:07:11;;;;;;;;;;;;;;;12.27;75.41;99945.41;1051824;28;652;-63
2022/11/24 03:08:02;;;;;;;;;;;;;;;12.25;74.49;99955.38;1054433;28;1031;-63
2022/11/24 03:08:52;;;;;;;;;;;;;;;12.30;75.92;99954.97;1055524;28;693;-63
2022/11/24 03:09:43;;;;;;;;;;;;;;;12.21;73.90;99955.75;1055098;28;1003;-63
2022/11/24 03:10:33;;;;;;;;;;;;;;;12.18;74.07;99957.69;1053155;28;1102;-63
2022/11/24 03:11:24;;;;;;;;;;;;;;;12.16;74.21;99959.69;1052292;28;1131;-63
2022/11/24 03:12:14;;;;;;;;;;;;;;;12.23;75.63;99953.78;1055737;28;666;-63
2022/11/24 03:13:05;;;;;;;;;;;;;;;12.30;75.02;99954.97;1056499;28;1225;-63
2022/11/24 03:13:55;;;;;;;;;;;;;;;12.18;74.82;99955.03;1055811;28;1146;-64
2022/11/24 03:14:46;;;;;;;;;;;;;;;12.28;75.59;99951.59;1053508;28;562;-64
2022/11/24 03:15:36;;;;;;;;;;;;;;;12.17;73.94;99955.19;1051568;28;631;-63
2022/11/24 03:16:26;;;;;;;;;;;;;;;12.20;74.29;99956.72;1051326;28;657;-63
2022/11/24 03:17:17;;;;;;;;;;;;;;;12.18;74.85;99951.53;1051948;28;1174;-63
2022/11/24 03:18:07;;;;;;;;;;;;;;;12.18;74.39;99950.69;1053880;28;1446;-63
2022/11/24 03:18:58;;;;;;;;;;;;;;;12.23;75.39;99954.66;1057555;28;1248;-63
2022/11/24 03:19:48;;;;;;;;;;;;;;;12.31;75.17;99959.34;1052852;28;689;-63
2022/11/24 03:20:39;;;;;;;;;;;;;;;12.34;75.47;99959.94;1054684;28;1103;-63
2022/11/24 03:21:29;;;;;;;;;;;;;;;12.28;73.87;99959.59;1055891;28;654;-63
2022/11/24 03:22:20;;;;;;;;;;;;;;;12.18;73.82;99952.38;1055747;28;1158;-63
2022/11/24 03:23:10;;;;;;;;;;;;;;;12.11;73.98;99953.88;1055856;28;633;-63
2022/11/24 03:24:00;;;;;;;;;;;;;;;12.08;75.11;99962.16;1055679;28;1154;-63
2022/11/24 03:24:52;;;;;;;;;;;;;;;12.13;75.13;99954.59;1055684;28;708;-63
2022/11/24 03:25:42;;;;;;;;;;;;;;;12.19;75.65;99958.56;1055167;28;642;-63
2022/11/24 03:26:32;;;;;;;;;;;;;;;12.18;75.00;99956.03;1056595;28;1146;-63
2022/11/24 03:27:23;;;;;;;;;;;;;;;12.20;75.49;99949.56;1055941;28;697;-63
2022/11/24 03:28:13;;;;;;;;;;;;;;;12.24;74.59;99948.31;1057315;28;1240;-63
2022/11/24 03:29:04;;;;;;;;;;;;;;;12.30;75.64;99960.31;1057171;28;817;-63
2022/11/24 03:29:54;;;;;;;;;;;;;;;12.30;75.36;99955.81;1052971;28;633;-63
2022/11/24 03:30:45;;;;;;;;;;;;;;;12.32;74.99;99961.03;1057590;28;716;-63
2022/11/24 03:31:35;;;;;;;;;;;;;;;12.30;73.73;99955.81;1060562;27;1158;-63
2022/11/24 03:32:26;;;;;;;;;;;;;;;12.20;73.77;99951.38;1053191;28;665;-63
2022/11/24 03:33:16;;;;;;;;;;;;;;;12.23;74.53;99956.47;1061200;27;650;-63
2022/11/24 03:34:06;;;;;;;;;;;;;;;12.24;74.68;99955.50;1057036;28;688;-63
2022/11/24 03:34:57;;;;;;;;;;;;;;;12.20;74.40;99956.72;1055458;28;1146;-63
2022/11/24 03:35:47;;;;;;;;;;;;;;;12.11;74.03;99967.25;1053607;28;669;-63
2022/11/24 03:36:38;;;;;;;;;;;;;;;12.16;75.41;99965.03;1056340;28;1309;-63
2022/11/24 03:37:28;;;;;;;;;;;;;;;12.22;74.70;99957.44;1056387;28;1193;-63
2022/11/24 03:38:19;;;;;;;;;;;;;;;12.26;74.87;99959.72;1056375;28;717;-63
2022/11/24 03:39:09;;;;;;;;;;;;;;;12.31;74.81;99956.66;1056698;28;686;-63
2022/11/24 03:39:59;;;;;;;;;;;;;;;12.31;74.97;99959.34;1054769;28;713;-63
2022/11/24 03:40:50;;;;;;;;;;;;;;;12.34;74.95;99956.41;1056495;28;699;-63
2022/11/24 03:41:40;;;;;;;;;;;;;;;12.37;75.42;99961.47;1052310;28;701;-63
2022/11/24 03:42:31;;;;;;;;;;;;;;;12.40;74.88;99962.06;1052016;28;618;-63
2022/11/24 03:43:22;;;;;;;;;;;;;;;12.43;75.21;99960.94;1053000;28;654;-63
2022/11/24 03:44:12;;;;;;;;;;;;;;;12.43;74.07;99967.13;1052359;28;609;-63
2022/11/24 03:45:03;;;;;;;;;;;;;;;12.40;74.85;99955.84;1056576;28;753;-63
2022/11/24 03:45:53;;;;;;;;;;;;;;;12.41;74.38;99957.56;1059595;27;1228;-63
2022/11/24 03:46:43;;;;;;;;;;;;;;;12.38;74.76;99961.34;1053219;28;677;-63
2022/11/24 03:47:34;;;;;;;;;;;;;;;12.33;74.07;99962.72;1054482;28;1159;-63
2022/11/24 03:48:24;;;;;;;;;;;;;;;12.37;75.37;99961.47;1056879;28;1450;-63
2022/11/24 03:49:15;;;;;;;;;;;;;;;12.38;75.09;99961.34;1055850;28;623;-63
2022/11/24 03:50:05;;;;;;;;;;;;;;;12.34;74.83;99959.94;1055431;28;1405;-62
2022/11/24 03:50:56;;;;;;;;;;;;;;;12.36;74.69;99965.97;1056950;28;724;-63
2022/11/24 03:51:46;;;;;;;;;;;;;;;12.34;75.08;99964.44;1054144;28;1055;-63
2022/11/24 03:52:37;;;;;;;;;;;;;;;12.36;74.90;99960.63;1057697;28;1898;-63
2022/11/24 03:53:27;;;;;;;;;;;;;;;12.34;73.88;99969.78;1056496;28;655;-63
2022/11/24 03:54:18;;;;;;;;;;;;;;;12.35;74.45;99971.47;1053618;28;995;-64
2022/11/24 03:55:08;;;;;;;;;;;;;;;12.30;73.56;99971.00;1056309;28;1131;-63
2022/11/24 03:55:59;;;;;;;;;;;;;;;12.31;75.27;99972.69;1056112;28;779;-63
2022/11/24 03:56:49;;;;;;;;;;;;;;;12.33;74.86;99970.75;1055994;28;937;-63
2022/11/24 03:57:39;;;;;;;;;;;;;;;12.35;74.69;99976.81;1055965;27;1032;-63
2022/11/24 03:58:30;;;;;;;;;;;;;;;12.29;74.32;99974.66;1060040;27;622;-63
2022/11/24 03:59:20;;;;;;;;;;;;;;;12.25;73.29;99974.06;1058073;27;690;-63
2022/11/24 04:00:11;;;;;;;;;;;;;;;12.28;74.71;99984.50;1056328;28;622;-63
2022/11/24 04:01:02;;;;;;;;;;;;;;;12.32;74.85;99982.41;1052311;28;673;-63
2022/11/24 04:01:52;;;;;;;;;;;;;;;12.32;75.27;99985.94;1054721;28;1143;-63
2022/11/24 04:02:43;;;;;;;;;;;;;;;12.34;75.13;99988.47;1054248;28;653;-63
2022/11/24 04:03:33;;;;;;;;;;;;;;;12.37;74.86;99988.19;1052928;28;673;-63
2022/11/24 04:04:24;;;;;;;;;;;;;;;12.35;73.64;99979.47;1054046;28;632;-63
2022/11/24 04:05:14;;;;;;;;;;;;;;;12.26;73.96;99997.13;1052849;28;713;-63
2022/11/24 04:06:05;;;;;;;;;;;;;;;12.23;75.31;99989.38;1052967;28;673;-64
2022/11/24 04:06:55;;;;;;;;;;;;;;;12.15;74.75;99990.03;1052735;28;650;-63
2022/11/24 04:07:45;;;;;;;;;;;;;;;12.22;75.38;99997.50;1052950;28;669;-63
2022/11/24 04:08:36;;;;;;;;;;;;;;;12.21;74.70;100003.81;1053322;28;657;-63
2022/11/24 04:09:26;;;;;;;;;;;;;;;12.18;74.03;99999.63;1052884;28;637;-63
2022/11/24 04:10:17;;;;;;;;;;;;;;;12.16;74.79;100002.41;1053461;28;685;-63
2022/11/24 04:11:07;;;;;;;;;;;;;;;12.24;74.86;100006.25;1056428;28;721;-63
2022/11/24 04:13:07;;;;;;;;;;;;;;;12.24;74.82;99998.22;1057479;28;650;-63
2022/11/24 04:13:57;;;;;;;;;;;;;;;12.24;74.82;100006.25;1053997;28;661;-63
2022/11/24 04:14:47;;;;;;;;;;;;;;;12.31;75.58;100010.09;1056147;28;1151;-63
2022/11/24 04:15:39;;;;;;;;;;;;;;;12.34;74.89;100017.84;1054100;28;704;-63
2022/11/24 04:16:29;;;;;;;;;;;;;;;12.36;74.53;100014.06;1052180;28;675;-63
2022/11/24 04:17:19;;;;;;;;;;;;;;;12.26;74.88;100012.31;1055808;28;1410;-63
2022/11/24 04:18:10;;;;;;;;;;;;;;;12.24;74.26;100008.91;1055652;28;768;-63
2022/11/24 04:19:00;;;;;;;;;;;;;;;12.22;74.85;100014.38;1053397;28;812;-63
2022/11/24 04:19:51;;;;;;;;;;;;;;;12.16;74.90;100015.78;1052645;28;720;-63
2022/11/24 04:20:41;;;;;;;;;;;;;;;12.23;75.58;100010.75;1056317;28;673;-63
2022/11/24 04:21:31;;;;;;;;;;;;;;;12.20;74.78;100016.34;1052255;28;821;-63
2022/11/24 04:22:22;;;;;;;;;;;;;;;12.20;74.02;100018.16;1052420;28;1119;-63
2022/11/24 04:23:12;;;;;;;;;;;;;;;12.12;74.58;100017.00;1055815;28;756;-63
2022/11/24 04:24:03;;;;;;;;;;;;;;;12.16;74.54;100020.28;1056640;28;662;-63
2022/11/24 04:24:53;;;;;;;;;;;;;;;12.14;74.89;100020.41;1056371;28;773;-63
2022/11/24 04:25:44;;;;;;;;;;;;;;;12.03;73.75;100020.44;1056410;28;1284;-63
2022/11/24 04:26:34;;;;;;;;;;;;;;;12.01;74.62;100019.72;1057516;28;706;-63
2022/11/24 04:27:25;;;;;;;;;;;;;;;12.01;74.95;100022.38;1056354;28;1225;-63
2022/11/24 04:28:15;;;;;;;;;;;;;;;11.97;74.21;100028.97;1056936;28;747;-63
2022/11/24 04:29:05;;;;;;;;;;;;;;;11.93;74.09;100027.53;1056267;28;1172;-63